GMMW

Nador International Airport

Nador, Morocco
METAR GMMW 222123Z 08006KT 050V120 5000 BKN007 SCT023 15/14 Q1013 NOSIG B8
Observed Flight Rules
Apr-22 @ 21:23 UTC (25 minutes ago) Instrument Flight Rules
Wind Visibility Clouds
80° at 6 knots 5,005 meters
  • Broken at 700' AGL
  • Scattered at 2,300' AGL
Temperatures Readings
Current 15°C / 59°F
Dewpoint 14°C / 57°F
Humidity 94%
Altimeter 29.91" Hg
Pressure 1013 hPa
Elevation 175
METAR GMMW 222123Z 08006KT 050V120 5000 BKN007 SCT023 15/14 Q1013 NOSIG B8
Observed Flight Rules
Apr-22 @ 21:23 UTC
(25 minutes ago)
IFR
Wind Visibility
80° at 6 knots 5,005 meters
Clouds
  • Broken at 700' AGL
  • Scattered at 2,300' AGL
Temperature Dewpoint
15°C / 59°F 14°C / 57°F
Humidity Altimeter Pressure
94% 29.91" Hg 1013 hPa